Perry County Municipal, IN

3:16 PM CDT on May 25, 2015 (GMT -0500)
INDOT | | Change Station
CLOSE
Current Station
Personal Weather Station
Location: Birdseye, IN
Elevation: 510 ft
Nearby Weather Stations

Elev 510 ft 38.23 °N, 86.71 °W | Updated 28 minutes ago

Overcast
Overcast
76 °F
Feels Like 77 °F
N
2
Wind Variable Wind from SSE
Gusts 5.0 mph

Today
High -- | Low -- °F
--% Chance of Precip.
Yesterday
High -- | Low -- °F
Precip. -- in
5:29 AM 7:58 PM
Waxing Crescent, 51% visible
Pressure 30.10 in
Visibility 10.0 miles
Clouds Mostly Cloudy 1800 ft
Mostly Cloudy 4800 ft
Mostly Cloudy 11000 ft
Heat Index 77 °F
Dew Point 68 °F
Humidity 74%
Rainfall in
Snow Depth Not available.
UV 5 out of 12
Pollen 4.90 out of 12
Air Quality Not available.
Flu Activity Sporadic
METAR KHNB 251955Z AUTO 19013KT 10SM BKN018 BKN048 BKN110 23/18 A3010 RMK AO1

More Conditions Fewer Conditions

Pressure 30.10 in
Visibility 10.0 miles
Clouds Mostly Cloudy 1800 ft
Mostly Cloudy 4800 ft
Mostly Cloudy 11000 ft
Heat Index 77 °F
Dew Point 68 °F
Humidity 74%
Rainfall in
Snow Depth Not available.
UV 5 out of 12
Pollen 4.90 out of 12
Air Quality Not available.
Flu Activity Sporadic
METAR KHNB 251955Z AUTO 19013KT 10SM BKN018 BKN048 BKN110 23/18 A3010 RMK AO1

More Conditions Fewer Conditions

10-Day Weather Forecast

Almanac

Astronomy

May. 25, 2015 Rise Set
Actual Time
Civil Twilight
Nautical Twilight
Astronomical Twilight
Moon
Length of Visible Light
Length of Day
Tomorrow will be .
, % of the Moon is Illuminated

Today's Extremes

State Highs State Lows

Community

WunderPhotos

Upload Photos

1,824,117 photos uploaded!

WunderBlogs® & News

Nearby

Air Quality

  Air Quality AQ Index Pollutant
Not available.

Snow Depth

Station Depth Elevation

Earthquake Activity

City Distance Mag. Time & Date
Minimum magnitude displayed is 2.5.

Coastal Water Temperatures

Place Temperature

Stations

Nearby Weather Stations

Station Location Temp. Windchill Dew Point Humidity Wind Precip. Elev Updated Type